Time;durP1;ratioP1;P1;durP2;ratioP2;P2;SDS_P1;SDS_P2;PMS_P1;PMS_P2;Temp;Humidity;BMP_temperature;BMP_pressure;BME280_temperature;BME280_humidity;BME280_pressure;Samples;Min_cycle;Max_cycle;Signal;HPM_P1;HPM_P2
2023/10/13 00:01:54;;;;;;;1.53;1.43;;;;;;;10.15;nan;60556.97;5031864;28;20270;-68
2023/10/13 00:04:24;;;;;;;1.60;1.50;;;;;;;10.18;nan;60387.41;5032198;28;20175;-66
2023/10/13 00:07:02;;;;;;;1.10;1.10;;;;;;;10.16;nan;60351.44;5030968;28;20558;-68
2023/10/13 00:09:37;;;;;;;1.37;1.27;;;;;;;10.03;nan;60495.06;5016282;28;20657;-68
2023/10/13 00:12:08;;;;;;;1.67;1.60;;;;;;;10.02;nan;60326.13;5031935;28;20230;-69
2023/10/13 00:14:34;;;;;;;1.30;1.20;;;;;;;9.78;nan;60238.13;5032161;28;20210;-65
2023/10/13 00:17:04;;;;;;;1.40;1.30;;;;;;;9.92;nan;60242.97;5031263;28;20630;-65
2023/10/13 00:19:44;;;;;;;1.10;1.10;;;;;;;9.75;nan;60197.09;5030599;28;20198;-68
2023/10/13 00:22:11;;;;;;;1.50;1.40;;;;;;;9.62;nan;60133.59;5031820;28;20167;-68
2023/10/13 00:24:47;;;;;;;1.50;1.40;;;;;;;9.69;nan;60006.81;5031539;28;20278;-66
2023/10/13 00:27:29;;;;;;;2.17;1.70;;;;;;;9.64;nan;59863.63;5031085;28;20178;-67
2023/10/13 00:30:41;;;;;;;2.40;2.20;;;;;;;9.96;nan;59971.97;5031344;28;20201;-68
2023/10/13 00:32:55;;;;;;;1.67;1.37;;;;;;;9.78;nan;59970.38;5030909;28;20190;-70
2023/10/13 00:35:37;;;;;;;1.70;1.60;;;;;;;9.73;nan;59965.38;5030880;28;20206;-67
2023/10/13 00:38:16;;;;;;;1.10;1.10;;;;;;;9.72;nan;59826.59;5033523;28;20175;-65
2023/10/13 00:40:52;;;;;;;1.37;1.27;;;;;;;9.52;nan;59819.72;5032263;28;20186;-66
2023/10/13 00:45:57;;;;;;;1.60;1.50;;;;;;;9.64;nan;59791.69;5030862;28;20195;-69
2023/10/13 00:48:34;;;;;;;1.27;1.17;;;;;;;9.61;nan;59758.34;5024350;28;20328;-70
2023/10/13 00:51:06;;;;;;;1.73;1.63;;;;;;;9.81;nan;59685.03;5031605;28;20175;-69
2023/10/13 00:53:44;;;;;;;1.37;1.27;;;;;;;9.81;nan;59792.13;5031218;28;20181;-66
2023/10/13 00:56:18;;;;;;;1.80;1.70;;;;;;;9.49;nan;59755.22;5030834;28;20201;-68
2023/10/13 00:58:46;;;;;;;1.53;1.43;;;;;;;9.44;nan;59744.59;5031247;28;20273;-70
2023/10/13 01:01:18;;;;;;;1.40;1.30;;;;;;;9.49;nan;59701.16;5031562;28;20300;-65
2023/10/13 01:04:04;;;;;;;1.07;1.07;;;;;;;9.58;nan;59472.09;5034991;28;20306;-69
2023/10/13 01:06:31;;;;;;;1.30;1.20;;;;;;;9.53;nan;59379.94;5034560;28;20642;-65
2023/10/13 01:09:12;;;;;;;1.43;1.33;;;;;;;9.42;nan;59402.94;5035019;28;20248;-67
2023/10/13 01:11:39;;;;;;;1.57;1.47;;;;;;;9.29;nan;59437.56;5015531;28;20228;-67
2023/10/13 01:14:05;;;;;;;2.27;1.57;;;;;;;9.48;nan;59448.31;5022370;28;20207;-65
2023/10/13 01:16:30;;;;;;;1.60;1.50;;;;;;;9.37;nan;59529.91;5034375;28;20244;-69
2023/10/13 01:18:59;;;;;;;1.63;1.50;;;;;;;9.37;nan;59529.91;5034693;28;20183;-66
2023/10/13 01:21:27;;;;;;;3.73;1.20;;;;;;;9.31;nan;59677.25;5035037;28;20260;-69
2023/10/13 01:23:53;;;;;;;1.50;1.40;;;;;;;9.30;nan;59612.44;5035071;28;20237;-69
2023/10/13 01:26:26;;;;;;;1.30;1.30;;;;;;;9.17;nan;59447.81;5034322;28;20197;-71
2023/10/13 01:28:56;;;;;;;1.43;1.33;;;;;;;9.29;nan;59149.75;5035090;28;20183;-68
2023/10/13 01:31:26;;;;;;;1.57;1.47;;;;;;;9.29;nan;59096.78;5034755;28;20187;-70
2023/10/13 01:33:58;;;;;;;1.40;1.30;;;;;;;9.09;nan;58745.84;5034986;28;20296;-67
2023/10/13 01:36:26;;;;;;;1.43;1.17;;;;;;;9.35;nan;58694.72;5035026;28;20186;-70
2023/10/13 01:38:52;;;;;;;1.63;1.53;;;;;;;9.30;nan;58652.16;5036643;28;20224;-66
2023/10/13 01:41:19;;;;;;;1.40;1.30;;;;;;;9.26;nan;58538.28;5035591;28;20268;-71
2023/10/13 01:43:44;;;;;;;1.40;1.30;;;;;;;9.05;nan;58558.19;5034976;28;20179;-69
2023/10/13 01:46:13;;;;;;;2.77;1.73;;;;;;;9.24;nan;58561.06;5034075;28;20564;-70
2023/10/13 01:48:40;;;;;;;1.40;1.30;;;;;;;9.12;nan;58390.13;5034629;28;20187;-66
2023/10/13 01:51:09;;;;;;;2.00;1.90;;;;;;;9.20;nan;58345.38;5034587;28;20175;-68
2023/10/13 01:53:36;;;;;;;1.70;1.60;;;;;;;9.07;nan;58298.16;5034545;28;20225;-68
2023/10/13 01:56:10;;;;;;;1.40;1.30;;;;;;;9.21;nan;58329.16;5033700;28;20718;-69
2023/10/13 01:58:42;;;;;;;1.50;1.40;;;;;;;9.03;nan;58151.84;5034163;28;20175;-70
2023/10/13 02:01:10;;;;;;;1.50;1.40;;;;;;;9.23;nan;58020.16;5034382;28;20262;-70
2023/10/13 02:03:46;;;;;;;1.60;1.50;;;;;;;8.96;nan;57996.66;5034246;28;20164;-67
2023/10/13 02:06:16;;;;;;;1.50;1.40;;;;;;;9.26;nan;57964.81;5033502;28;20563;-68
2023/10/13 02:08:43;;;;;;;1.67;1.57;;;;;;;9.17;nan;57733.66;5034184;28;20183;-67
2023/10/13 02:11:09;;;;;;;1.13;1.13;;;;;;;9.08;nan;57775.44;5034143;28;20186;-68
2023/10/13 02:13:48;;;;;;;1.20;1.10;;;;;;;9.21;nan;57791.94;5033368;28;20611;-70
2023/10/13 02:16:18;;;;;;;1.30;1.20;;;;;;;9.18;nan;57508.19;5033539;28;20772;-68
2023/10/13 02:18:44;;;;;;;1.43;1.33;;;;;;;9.18;nan;57521.44;5034139;28;20266;-68
2023/10/13 02:21:15;;;;;;;1.40;1.30;;;;;;;9.10;nan;57999.03;5034070;28;20281;-69
2023/10/13 02:23:59;;;;;;;1.60;1.50;;;;;;;9.03;nan;57990.94;5034023;28;20186;-69
2023/10/13 02:26:32;;;;;;;1.47;1.37;;;;;;;9.19;nan;58018.38;5033523;28;20190;-66
2023/10/13 02:29:06;;;;;;;1.30;1.20;;;;;;;8.96;nan;57955.41;5034018;28;20183;-68
2023/10/13 02:31:33;;;;;;;1.83;1.73;;;;;;;9.11;nan;57750.13;5014034;28;20172;-68
2023/10/13 02:34:00;;;;;;;1.37;1.27;;;;;;;8.95;nan;57972.69;5019592;28;20230;-71
2023/10/13 02:36:36;;;;;;;2.60;1.57;;;;;;;8.91;nan;57978.53;5033015;28;20228;-71
2023/10/13 02:39:07;;;;;;;1.60;1.50;;;;;;;9.06;nan;57660.78;5033642;28;20179;-64
2023/10/13 02:41:36;;;;;;;1.40;1.30;;;;;;;9.03;nan;57716.06;5035791;28;20612;-66
2023/10/13 02:44:06;;;;;;;1.53;1.43;;;;;;;9.00;nan;57661.97;5033805;28;20183;-68
2023/10/13 02:46:36;;;;;;;1.53;1.43;;;;;;;8.96;nan;57471.91;5033525;28;20642;-68
2023/10/13 02:49:10;;;;;;;2.83;1.80;;;;;;;8.82;nan;57458.00;5033479;28;20241;-69
2023/10/13 02:51:36;;;;;;;1.20;1.20;;;;;;;8.75;nan;57307.53;5033459;28;20163;-67
2023/10/13 02:54:09;;;;;;;1.83;1.50;;;;;;;8.88;nan;57288.34;5031521;28;20207;-68
2023/10/13 02:56:35;;;;;;;1.40;1.30;;;;;;;8.64;nan;57245.50;5033888;28;20175;-66
2023/10/13 02:59:04;;;;;;;1.63;1.53;;;;;;;8.71;nan;57288.56;5033114;28;20175;-67
2023/10/13 03:01:33;;;;;;;1.60;1.50;;;;;;;8.69;nan;57240.13;5032662;28;20274;-70
2023/10/13 03:04:00;;;;;;;1.63;1.53;;;;;;;8.73;nan;57201.13;5031733;28;20184;-68
2023/10/13 03:06:33;;;;;;;1.37;1.27;;;;;;;8.64;nan;56525.88;5031541;28;20202;-68
2023/10/13 03:09:13;;;;;;;4.07;1.97;;;;;;;8.59;nan;55941.03;5033227;28;20178;-68
2023/10/13 03:11:44;;;;;;;1.20;1.20;;;;;;;8.71;nan;55910.34;5014023;28;20615;-68
2023/10/13 03:14:23;;;;;;;1.40;1.30;;;;;;;8.64;nan;55755.59;5021928;28;20209;-69
2023/10/13 03:16:49;;;;;;;1.60;1.50;;;;;;;8.66;nan;55994.09;5034304;28;20187;-67
2023/10/13 03:19:14;;;;;;;1.77;1.47;;;;;;;8.63;nan;55729.13;5034735;28;20567;-69
2023/10/13 03:21:44;;;;;;;1.03;1.03;;;;;;;8.62;nan;55760.63;5032868;28;20190;-69
2023/10/13 03:24:13;;;;;;;1.80;1.70;;;;;;;8.55;nan;55631.88;5032912;28;20554;-69
2023/10/13 03:26:44;;;;;;;1.40;1.30;;;;;;;8.25;nan;55374.59;5032053;28;20670;-67
2023/10/13 03:29:13;;;;;;;1.37;1.30;;;;;;;8.52;nan;55173.34;5032879;28;20218;-70
2023/10/13 03:31:39;;;;;;;2.33;1.50;;;;;;;8.36;nan;55129.44;5032889;28;20203;-70
2023/10/13 03:34:09;;;;;;;1.40;1.20;;;;;;;8.51;nan;54704.84;5032266;28;20198;-69
2023/10/13 03:36:56;;;;;;;1.60;1.50;;;;;;;8.60;nan;55448.47;5031784;28;20191;-68
2023/10/13 03:39:27;;;;;;;1.63;1.47;;;;;;;8.51;nan;55696.31;5015516;28;20191;-69
2023/10/13 03:41:53;;;;;;;1.10;1.10;;;;;;;8.38;nan;55268.66;5034907;28;20168;-66
2023/10/13 03:44:20;;;;;;;1.10;1.10;;;;;;;8.53;nan;55309.59;5032415;28;20635;-66
2023/10/13 03:46:47;;;;;;;1.00;1.00;;;;;;;8.37;nan;55164.00;5031293;28;20661;-68
2023/10/13 03:49:15;;;;;;;1.37;1.27;;;;;;;8.62;nan;55908.03;5032272;28;20606;-69
2023/10/13 03:51:41;;;;;;;1.57;1.47;;;;;;;8.43;nan;56402.09;5032255;28;20175;-67
2023/10/13 03:54:09;;;;;;;1.60;1.50;;;;;;;8.60;nan;56259.81;5031888;28;20210;-69
2023/10/13 03:56:40;;;;;;;1.70;1.30;;;;;;;8.33;nan;56068.84;5031385;28;20187;-68
2023/10/13 03:59:09;;;;;;;1.80;1.70;;;;;;;7.55;nan;55770.09;5032099;28;20692;-65
2023/10/13 04:07:13;;;;;;;1.70;1.30;;;;;;;8.31;nan;56938.91;5031135;28;20273;-67
2023/10/13 04:17:27;;;;;;;2.30;2.10;;;;;;;8.39;nan;57562.56;5031470;28;20183;-67
2023/10/13 04:25:35;;;;;;;1.40;1.30;;;;;;;8.38;nan;57916.88;5015378;28;20712;-69
2023/10/13 04:41:22;;;;;;;1.43;1.33;;;;;;;8.02;nan;57072.69;5031023;28;20186;-66
2023/10/13 04:43:57;;;;;;;2.80;1.73;;;;;;;7.85;nan;57060.22;5032110;28;20611;-67
2023/10/13 04:46:39;;;;;;;1.97;1.87;;;;;;;8.04;nan;56341.25;5030747;28;20178;-69
2023/10/13 04:49:10;;;;;;;1.30;1.20;;;;;;;8.00;nan;56423.41;5031673;28;20183;-66
2023/10/13 04:54:29;;;;;;;1.60;1.50;;;;;;;8.04;nan;55634.72;5031053;28;20238;-70
2023/10/13 05:05:43;;;;;;;1.83;1.73;;;;;;;8.72;nan;55919.00;5029575;28;20179;-68
2023/10/13 06:29:36;;;;;;;0.90;0.90;;;;;;;13.41;nan;60639.06;5033480;28;20236;-68
2023/10/13 06:32:01;;;;;;;1.70;1.25;;;;;;;13.75;nan;60769.00;5033900;28;20606;-67
2023/10/13 06:34:45;;;;;;;1.45;1.35;;;;;;;13.89;nan;60831.50;5033554;28;20203;-68
2023/10/13 06:37:30;;;;;;;1.08;1.08;;;;;;;13.97;nan;60809.09;5034338;28;20180;-68
2023/10/13 06:39:57;;;;;;;1.67;1.17;;;;;;;14.24;nan;60885.13;5033079;28;20183;-67
2023/10/13 06:42:29;;;;;;;1.70;1.60;;;;;;;14.26;nan;60987.53;5034598;28;20535;-65
2023/10/13 06:44:55;;;;;;;1.92;1.73;;;;;;;14.44;nan;60943.59;5035616;28;20268;-71
2023/10/13 06:47:22;;;;;;;1.00;1.00;;;;;;;14.53;nan;61030.81;5034537;28;20183;-69
2023/10/13 06:49:51;;;;;;;1.10;1.05;;;;;;;14.65;nan;61124.06;5033924;28;20171;-72
2023/10/13 06:52:22;;;;;;;1.70;1.60;;;;;;;14.68;nan;61104.28;5033521;28;20172;-68
2023/10/13 06:54:50;;;;;;;1.40;1.30;;;;;;;15.01;nan;60976.31;5032336;28;20195;-66
2023/10/13 06:57:20;;;;;;;1.13;0.93;;;;;;;15.23;nan;61283.56;5032579;28;20244;-71
2023/10/13 06:59:46;;;;;;;1.75;1.50;;;;;;;15.19;nan;60990.84;5033097;28;20612;-68
2023/10/13 07:02:21;;;;;;;1.27;1.17;;;;;;;15.36;nan;61105.22;5033305;28;20186;-67
2023/10/13 07:05:03;;;;;;;1.75;1.63;;;;;;;15.34;nan;61159.59;5032562;28;20187;-68
2023/10/13 07:07:28;;;;;;;1.42;1.33;;;;;;;15.66;nan;61131.34;5032115;28;20654;-65
2023/10/13 07:09:58;;;;;;;1.20;1.10;;;;;;;15.64;nan;61200.63;5034160;28;20245;-65
2023/10/13 07:12:26;;;;;;;1.90;1.55;;;;;;;15.78;nan;61126.84;5032623;28;20231;-69
2023/10/13 07:14:53;;;;;;;1.25;1.15;;;;;;;15.85;nan;61239.78;5031633;28;20202;-68
2023/10/13 07:17:25;;;;;;;1.00;1.00;;;;;;;16.02;nan;61227.50;5031768;28;20179;-71
2023/10/13 07:19:59;;;;;;;2.22;1.42;;;;;;;16.38;nan;61242.38;5033036;28;20179;-70
2023/10/13 07:22:27;;;;;;;1.38;1.13;;;;;;;16.40;nan;61311.09;5033515;28;20179;-65
2023/10/13 07:24:53;;;;;;;0.93;0.88;;;;;;;16.53;nan;61330.94;5033003;28;20257;-67
2023/10/13 07:27:23;;;;;;;1.17;1.08;;;;;;;16.61;nan;61237.41;5032934;28;20598;-66
2023/10/13 07:30:05;;;;;;;0.77;0.77;;;;;;;16.72;nan;61210.56;5033239;28;20179;-67
2023/10/13 07:32:33;;;;;;;1.10;1.00;;;;;;;16.96;nan;61309.91;5033057;28;20236;-69
2023/10/13 07:35:10;;;;;;;1.30;1.20;;;;;;;17.09;nan;61264.66;5032790;28;20203;-66
2023/10/13 07:37:35;;;;;;;0.88;0.88;;;;;;;17.12;nan;61294.44;5031699;28;20178;-65
2023/10/13 07:40:01;;;;;;;1.23;1.13;;;;;;;17.47;nan;61307.00;5032838;28;20233;-69
2023/10/13 07:42:38;;;;;;;0.90;0.90;;;;;;;17.53;nan;61523.00;5033119;28;20186;-66
2023/10/13 07:45:05;;;;;;;1.25;1.08;;;;;;;16.95;nan;61450.16;5025082;28;20203;-65
2023/10/13 07:47:32;;;;;;;2.00;1.20;;;;;;;17.80;nan;61359.25;5031001;28;20183;-66
2023/10/13 07:49:58;;;;;;;1.67;1.40;;;;;;;17.97;nan;61399.72;5030859;28;20552;-68
2023/10/13 07:52:36;;;;;;;1.00;0.90;;;;;;;17.97;nan;61402.28;5031401;28;20291;-71
2023/10/13 07:55:21;;;;;;;1.17;1.08;;;;;;;18.24;nan;61579.66;5031462;28;20191;-65
2023/10/13 07:57:58;;;;;;;1.70;1.20;;;;;;;18.21;nan;61371.97;5029123;28;20187;-70
2023/10/13 08:00:38;;;;;;;0.82;0.82;;;;;;;18.04;nan;61417.38;5029875;28;20189;-67
2023/10/13 08:06:06;;;;;;;1.30;1.20;;;;;;;18.50;nan;61505.06;5030345;28;20198;-66
2023/10/13 08:08:39;;;;;;;1.50;1.35;;;;;;;18.50;nan;61578.09;5028063;28;20188;-69
2023/10/13 08:11:11;;;;;;;1.38;1.25;;;;;;;18.70;nan;61459.91;5029677;28;20651;-66
2023/10/13 08:13:38;;;;;;;1.40;1.30;;;;;;;18.52;nan;61434.91;5030022;28;20705;-66
2023/10/13 08:16:20;;;;;;;1.13;1.02;;;;;;;18.57;nan;61458.69;5031370;28;20217;-68
2023/10/13 08:18:49;;;;;;;1.58;1.27;;;;;;;18.69;nan;61502.75;5031640;28;20189;-68
2023/10/13 08:21:19;;;;;;;1.42;1.30;;;;;;;18.70;nan;61576.34;5031582;28;20187;-66
2023/10/13 08:45:53;;;;;;;1.10;1.00;;;;;;;20.06;nan;61741.88;5030565;28;20183;-63
2023/10/13 09:07:07;;;;;;;2.40;1.48;;;;;;;21.35;nan;61728.19;5031454;28;20266;-63
2023/10/13 09:15:06;;;;;;;1.98;1.20;;;;;;;21.77;nan;61825.25;5030942;28;20245;-64
2023/10/13 09:17:41;;;;;;;1.25;1.15;;;;;;;21.81;nan;61837.59;5031436;28;20616;-64
2023/10/13 09:23:07;;;;;;;1.00;1.00;;;;;;;21.78;nan;61857.59;5029664;28;20170;-62
2023/10/13 09:25:38;;;;;;;2.28;1.70;;;;;;;22.15;nan;61888.13;5035051;28;20160;-63
2023/10/13 09:28:14;;;;;;;1.30;1.13;;;;;;;22.27;nan;61889.31;5034826;28;20175;-62
2023/10/13 09:30:44;;;;;;;1.13;1.02;;;;;;;22.54;nan;61945.47;5035455;28;20170;-63
2023/10/13 09:33:15;;;;;;;1.17;1.08;;;;;;;22.67;nan;62084.72;5034330;28;20178;-65
2023/10/13 09:35:50;;;;;;;1.15;1.02;;;;;;;22.95;nan;62038.44;5034415;28;20577;-64
2023/10/13 09:38:16;;;;;;;1.40;1.10;;;;;;;22.99;nan;61951.78;5034476;28;20163;-63
2023/10/13 09:40:49;;;;;;;1.88;1.30;;;;;;;23.09;nan;61994.44;5034644;28;20167;-64
2023/10/13 09:43:19;;;;;;;2.13;1.40;;;;;;;23.12;nan;61992.06;5034784;28;20175;-64
2023/10/13 09:46:07;;;;;;;1.63;1.05;;;;;;;23.13;nan;62126.16;5034336;28;20176;-63
2023/10/13 09:48:35;;;;;;;1.40;1.30;;;;;;;23.16;nan;62012.25;5034774;28;20205;-62
2023/10/13 09:51:08;;;;;;;1.42;1.20;;;;;;;23.02;nan;62017.75;5034145;28;20229;-63
2023/10/13 09:53:37;;;;;;;2.17;1.50;;;;;;;23.00;nan;62134.78;5034354;28;20168;-64
2023/10/13 09:56:19;;;;;;;2.05;1.85;;;;;;;23.16;nan;62033.13;5034025;28;20534;-64
2023/10/13 09:59:13;;;;;;;2.42;1.35;;;;;;;23.26;nan;62110.25;5034443;28;20168;-63
2023/10/13 10:01:58;;;;;;;1.73;1.52;;;;;;;23.37;nan;62077.28;5034579;28;20176;-62
2023/10/13 10:04:23;;;;;;;1.58;1.25;;;;;;;23.57;nan;62027.06;5032899;28;20313;-63
2023/10/13 10:06:52;;;;;;;1.58;1.45;;;;;;;23.91;nan;62138.81;5034170;28;20749;-63
2023/10/13 10:09:22;;;;;;;1.42;1.30;;;;;;;23.94;nan;62121.38;5034397;28;20634;-63
2023/10/13 10:12:01;;;;;;;2.63;1.35;;;;;;;23.81;nan;62221.41;5034067;28;20227;-63
2023/10/13 10:15:06;;;;;;;2.05;1.50;;;;;;;23.72;nan;62133.41;5034460;28;20288;-64
2023/10/13 10:17:42;;;;;;;2.33;1.52;;;;;;;23.63;nan;62114.78;5034534;28;20202;-63
2023/10/13 10:20:14;;;;;;;1.27;1.15;;;;;;;23.88;nan;62137.44;5034190;28;20186;-64
2023/10/13 10:22:50;;;;;;;1.40;1.23;;;;;;;24.00;nan;62136.00;5034099;28;20186;-63
2023/10/13 10:25:28;;;;;;;1.52;1.23;;;;;;;23.96;nan;62149.72;5033862;28;20201;-64
2023/10/13 10:27:59;;;;;;;1.38;1.27;;;;;;;24.03;nan;62319.03;5034265;28;20646;-63
2023/10/13 10:30:28;;;;;;;2.17;1.85;;;;;;;24.17;nan;62180.97;5033743;28;20187;-62
2023/10/13 10:33:02;;;;;;;1.45;0.98;;;;;;;24.27;nan;62147.41;5032204;28;20263;-63
2023/10/13 10:35:32;;;;;;;1.20;1.10;;;;;;;24.43;nan;62223.66;5032311;28;20197;-63
2023/10/13 10:38:11;;;;;;;1.90;1.35;;;;;;;24.31;nan;62272.09;5033194;28;20171;-62
2023/10/13 10:40:51;;;;;;;2.47;1.92;;;;;;;24.31;nan;62191.13;5031962;28;20176;-62
2023/10/13 10:43:18;;;;;;;2.33;1.42;;;;;;;24.24;nan;62143.97;5032750;28;20236;-62
2023/10/13 10:45:50;;;;;;;2.40;1.52;;;;;;;23.89;nan;62141.19;5032550;28;20290;-63
2023/10/13 10:48:20;;;;;;;1.23;1.13;;;;;;;24.15;nan;62123.81;5032167;28;20603;-63
2023/10/13 10:50:55;;;;;;;2.50;1.42;;;;;;;24.45;nan;62209.69;5032932;28;20159;-63
2023/10/13 10:53:33;;;;;;;1.40;1.30;;;;;;;24.45;nan;62295.91;5031711;28;20533;-63
2023/10/13 10:56:19;;;;;;;1.45;1.35;;;;;;;24.82;nan;62369.53;5032918;28;20217;-63
2023/10/13 10:58:46;;;;;;;2.40;1.45;;;;;;;24.76;nan;62249.69;5033071;28;20167;-63
2023/10/13 11:01:12;;;;;;;1.40;1.30;;;;;;;24.69;nan;62409.00;5033095;28;20180;-63
2023/10/13 11:03:41;;;;;;;0.93;0.93;;;;;;;24.73;nan;62233.78;5033079;28;20175;-63
2023/10/13 11:06:16;;;;;;;1.92;1.35;;;;;;;25.05;nan;62236.31;5033347;28;20262;-62
2023/10/13 11:08:43;;;;;;;2.17;2.00;;;;;;;25.23;nan;62190.88;5033194;28;20531;-64
2023/10/13 11:11:17;;;;;;;4.07;1.55;;;;;;;25.53;nan;62295.13;5032405;28;20180;-63
2023/10/13 11:13:50;;;;;;;1.30;1.13;;;;;;;25.66;nan;62435.66;5032949;28;20174;-64
2023/10/13 11:16:33;;;;;;;4.10;1.42;;;;;;;26.04;nan;62378.41;5032783;28;20164;-63
2023/10/13 11:19:04;;;;;;;2.35;2.00;;;;;;;26.41;nan;62438.44;5031485;28;20557;-65
2023/10/13 11:21:31;;;;;;;1.73;1.30;;;;;;;26.61;nan;62540.53;5032649;28;20190;-64
2023/10/13 11:24:08;;;;;;;1.77;1.67;;;;;;;27.05;nan;62692.66;5032659;28;20172;-64
2023/10/13 11:27:02;;;;;;;1.88;1.48;;;;;;;27.06;nan;62491.78;5031725;28;20159;-64
2023/10/13 11:29:35;;;;;;;1.05;1.00;;;;;;;27.01;nan;62472.94;5032008;28;20201;-65
2023/10/13 11:32:02;;;;;;;2.75;1.48;;;;;;;26.92;nan;62491.50;5032397;28;20228;-63
2023/10/13 11:34:39;;;;;;;3.10;2.05;;;;;;;26.64;nan;62567.56;5032049;28;20195;-63
2023/10/13 11:37:28;;;;;;;1.45;1.30;;;;;;;26.54;nan;62406.13;5031770;28;20578;-65
2023/10/13 11:39:51;;;;;;;1.42;1.08;;;;;;;26.05;nan;62377.50;5031906;28;20175;-67
2023/10/13 11:42:17;;;;;;;1.45;1.10;;;;;;;25.83;nan;62368.09;5032165;28;20175;-66
2023/10/13 11:44:43;;;;;;;1.40;1.30;;;;;;;25.82;nan;62383.22;5032190;28;20174;-65
2023/10/13 11:49:57;;;;;;;2.20;1.33;;;;;;;25.76;nan;62449.13;5032103;28;20183;-64
2023/10/13 11:52:26;;;;;;;1.40;1.08;;;;;;;25.88;nan;62408.44;5031521;28;20180;-64
2023/10/13 11:54:51;;;;;;;1.55;1.23;;;;;;;25.98;nan;62361.66;5029768;28;20840;-64
2023/10/13 11:57:19;;;;;;;3.33;1.45;;;;;;;26.06;nan;62507.00;5029955;28;20187;-64
2023/10/13 11:59:52;;;;;;;2.13;1.58;;;;;;;26.15;nan;62391.53;5030656;28;20556;-64
2023/10/13 12:04:54;;;;;;;2.05;1.75;;;;;;;26.56;nan;62489.69;5031165;28;20205;-63
2023/10/13 12:07:23;;;;;;;2.50;1.45;;;;;;;26.65;nan;62489.47;5031533;28;20175;-64
2023/10/13 12:12:23;;;;;;;2.10;1.67;;;;;;;26.76;nan;62576.06;5032039;28;20226;-64
2023/10/13 12:14:57;;;;;;;2.75;1.60;;;;;;;26.54;nan;62455.94;5032274;28;20756;-63
2023/10/13 12:17:34;;;;;;;1.55;1.45;;;;;;;26.54;nan;62456.53;5031693;28;20202;-64
2023/10/13 12:20:05;;;;;;;1.23;1.10;;;;;;;26.24;nan;62428.03;5031359;28;20607;-63
2023/10/13 12:22:51;;;;;;;1.00;0.98;;;;;;;26.21;nan;62528.84;5031927;28;20183;-64
2023/10/13 12:25:44;;;;;;;1.95;1.50;;;;;;;26.17;nan;62450.91;5031948;28;20297;-63
2023/10/13 12:28:18;;;;;;;1.38;1.00;;;;;;;26.10;nan;62414.66;5031715;28;20638;-64
2023/10/13 12:30:53;;;;;;;1.55;1.10;;;;;;;26.33;nan;62417.34;5031861;28;20182;-63
2023/10/13 12:33:28;;;;;;;1.80;1.15;;;;;;;26.32;nan;62644.22;5031447;28;20170;-63
2023/10/13 12:36:30;;;;;;;2.50;1.50;;;;;;;25.93;nan;62568.09;5031993;28;20233;-65
2023/10/13 12:52:16;;;;;;;1.58;1.20;;;;;;;26.44;nan;62455.00;5031621;28;20175;-64
2023/10/13 12:54:46;;;;;;;2.42;1.27;;;;;;;26.36;nan;62564.34;5031746;28;20195;-64
2023/10/13 12:57:15;;;;;;;1.77;1.45;;;;;;;26.44;nan;62481.22;5030983;28;20623;-63
2023/10/13 12:59:41;;;;;;;1.50;1.10;;;;;;;26.36;nan;62464.75;5035010;28;20167;-62
2023/10/13 13:02:08;;;;;;;1.52;1.35;;;;;;;26.20;nan;62365.81;5035188;28;20253;-63
2023/10/13 13:04:36;;;;;;;2.70;1.50;;;;;;;26.34;nan;62412.69;5035284;28;20167;-64
2023/10/13 13:07:05;;;;;;;1.95;1.13;;;;;;;26.16;nan;62437.22;5036026;28;20194;-64
2023/10/13 13:09:31;;;;;;;1.58;1.42;;;;;;;26.00;nan;62373.84;5034221;28;20207;-64
2023/10/13 13:11:59;;;;;;;1.30;1.20;;;;;;;25.81;nan;62509.81;5034790;28;20254;-63
2023/10/13 13:14:30;;;;;;;1.50;1.40;;;;;;;25.71;nan;62430.88;5034950;28;20280;-64
2023/10/13 13:17:05;;;;;;;1.42;1.15;;;;;;;25.83;nan;62468.19;5034731;28;20171;-63
2023/10/13 13:19:36;;;;;;;1.38;1.15;;;;;;;25.13;nan;62395.97;5035167;28;20262;-65
2023/10/13 13:22:05;;;;;;;1.23;1.13;;;;;;;26.16;nan;62413.06;5034949;28;20179;-62
2023/10/13 13:24:31;;;;;;;1.20;1.10;;;;;;;26.26;nan;62425.09;5034775;28;20180;-64
2023/10/13 13:27:02;;;;;;;1.90;1.13;;;;;;;26.27;nan;62549.38;5034971;28;20178;-64
2023/10/13 13:29:29;;;;;;;2.00;1.05;;;;;;;24.81;nan;62410.22;5033440;28;20913;-64
2023/10/13 13:31:55;;;;;;;1.02;0.95;;;;;;;26.32;nan;62533.56;5034720;28;20183;-63
2023/10/13 13:34:21;;;;;;;0.90;0.90;;;;;;;26.16;nan;62369.09;5034519;28;20192;-63
2023/10/13 13:36:52;;;;;;;1.08;1.02;;;;;;;26.26;nan;62513.63;5034411;28;20573;-64
2023/10/13 13:39:29;;;;;;;1.38;1.27;;;;;;;26.31;nan;62407.19;5034942;28;20182;-65
2023/10/13 13:41:58;;;;;;;3.33;1.25;;;;;;;26.03;nan;62514.06;5034806;28;20174;-64
2023/10/13 13:44:29;;;;;;;1.40;1.20;;;;;;;26.17;nan;62393.81;5034606;28;20180;-63
2023/10/13 13:46:56;;;;;;;1.23;1.08;;;;;;;26.00;nan;62541.47;5034623;28;20163;-63
2023/10/13 13:49:29;;;;;;;1.27;1.10;;;;;;;25.97;nan;62472.56;5033686;28;20631;-64
2023/10/13 13:51:55;;;;;;;1.75;1.13;;;;;;;25.88;nan;62475.94;5034777;28;20162;-64
2023/10/13 13:54:20;;;;;;;1.98;1.08;;;;;;;26.08;nan;62430.13;5034003;28;20277;-63
2023/10/13 13:56:47;;;;;;;1.38;1.17;;;;;;;26.04;nan;62415.06;5034066;28;20697;-64
2023/10/13 13:59:15;;;;;;;1.50;1.10;;;;;;;26.12;nan;62506.00;5033669;28;20562;-63
2023/10/13 14:01:44;;;;;;;2.85;1.33;;;;;;;25.89;nan;62296.38;5034357;28;20168;-64
2023/10/13 14:04:10;;;;;;;1.60;1.02;;;;;;;25.89;nan;62372.34;5033971;28;20206;-64
2023/10/13 14:06:37;;;;;;;2.10;1.58;;;;;;;26.04;nan;62525.09;5034176;28;20630;-64
2023/10/13 14:09:14;;;;;;;1.63;0.98;;;;;;;26.02;nan;62431.13;5033565;28;20172;-63
2023/10/13 14:16:50;;;;;;;1.55;1.45;;;;;;;25.77;nan;62410.97;5033918;28;20228;-63
2023/10/13 14:19:26;;;;;;;2.42;1.17;;;;;;;25.63;nan;62408.06;5033744;28;20215;-65
2023/10/13 14:21:58;;;;;;;1.67;1.27;;;;;;;25.48;nan;62373.16;5032651;28;20163;-62
2023/10/13 14:24:28;;;;;;;1.90;1.10;;;;;;;25.41;nan;62320.69;5033860;28;20183;-63
2023/10/13 14:27:17;;;;;;;1.23;1.13;;;;;;;25.18;nan;62252.59;5032749;28;20677;-62
2023/10/13 14:29:43;;;;;;;1.10;1.00;;;;;;;25.21;nan;62337.09;5024845;28;20237;-62
2023/10/13 14:32:13;;;;;;;1.75;1.55;;;;;;;25.04;nan;62360.13;5033237;28;20179;-63
2023/10/13 14:34:43;;;;;;;1.15;1.05;;;;;;;24.97;nan;62294.59;5033443;28;20187;-64
2023/10/13 14:37:12;;;;;;;3.08;1.00;;;;;;;25.07;nan;62259.50;5013461;28;20184;-61
2023/10/13 14:39:41;;;;;;;1.83;0.90;;;;;;;25.03;nan;62264.81;5013267;28;20635;-63
2023/10/13 14:42:07;;;;;;;1.90;1.40;;;;;;;24.97;nan;62334.38;5013468;28;20180;-64
2023/10/13 14:44:33;;;;;;;1.70;1.30;;;;;;;24.77;nan;62229.94;5012689;28;20242;-67
2023/10/13 14:47:00;;;;;;;1.70;1.48;;;;;;;24.85;nan;62220.75;5013575;28;20172;-64
2023/10/13 14:49:25;;;;;;;1.35;1.05;;;;;;;24.89;nan;62243.63;5013907;28;20314;-63
2023/10/13 14:51:51;;;;;;;1.63;1.52;;;;;;;24.86;nan;62238.19;5013057;28;20255;-64
2023/10/13 14:54:16;;;;;;;1.83;1.30;;;;;;;24.79;nan;62457.00;5013884;28;20212;-65
2023/10/13 14:56:42;;;;;;;2.05;1.50;;;;;;;24.46;nan;62279.31;5013827;28;20290;-64
2023/10/13 14:59:14;;;;;;;1.48;1.10;;;;;;;24.58;nan;62235.53;5021308;28;20274;-62
2023/10/13 15:01:42;;;;;;;1.58;1.20;;;;;;;24.42;nan;62141.53;5018788;28;20194;-64
2023/10/13 15:04:08;;;;;;;1.27;1.10;;;;;;;24.20;nan;62166.66;5012867;28;20191;-64
2023/10/13 15:06:34;;;;;;;2.35;1.15;;;;;;;24.34;nan;62236.34;5013417;28;20551;-65
2023/10/13 15:09:00;;;;;;;7.93;1.48;;;;;;;24.11;nan;62147.97;5013551;28;20165;-62
2023/10/13 15:11:27;;;;;;;2.20;1.30;;;;;;;24.20;nan;62129.53;5013595;28;20295;-64
2023/10/13 15:13:53;;;;;;;1.23;1.13;;;;;;;23.94;nan;62013.75;5013077;28;20663;-63
2023/10/13 15:16:24;;;;;;;1.38;1.17;;;;;;;24.04;nan;62124.34;5013184;28;20259;-65
2023/10/13 15:18:52;;;;;;;0.77;0.77;;;;;;;23.86;nan;62077.75;5032537;28;20168;-64
2023/10/13 15:21:36;;;;;;;1.15;1.05;;;;;;;21.03;nan;63662.84;5032556;28;20175;-66
2023/10/13 15:24:16;;;;;;;1.20;1.10;;;;;;;23.34;nan;62155.31;5032796;28;20540;-64
2023/10/13 15:26:47;;;;;;;1.73;1.23;;;;;;;23.33;nan;62143.72;5032485;28;20277;-66
2023/10/13 15:29:17;;;;;;;1.70;1.25;;;;;;;23.46;nan;62071.91;5032327;28;20553;-66
2023/10/13 15:32:04;;;;;;;1.30;1.20;;;;;;;23.35;nan;62026.59;5032706;28;20218;-64
2023/10/13 15:34:30;;;;;;;0.98;0.95;;;;;;;23.06;nan;61993.06;5032069;28;20211;-64
2023/10/13 15:36:57;;;;;;;1.25;1.15;;;;;;;23.16;nan;62067.00;5032453;28;20172;-65
2023/10/13 15:39:24;;;;;;;2.10;1.15;;;;;;;23.00;nan;62061.81;5032332;28;20229;-65
2023/10/13 15:41:53;;;;;;;1.38;1.10;;;;;;;22.89;nan;61966.47;5030704;28;20175;-64